Time;durP1;ratioP1;P1;durP2;ratioP2;P2;SDS_P1;SDS_P2;PMS_P1;PMS_P2;Temp;Humidity;BMP_temperature;BMP_pressure;BME280_temperature;BME280_humidity;BME280_pressure;Samples;Min_cycle;Max_cycle;Signal;HPM_P1;HPM_P2
2022/12/18 00:02:00;;;;;;;5.32;3.70;;;8.40;82.90;;;;;;6338614;22;20003;-78
2022/12/18 00:04:27;;;;;;;5.68;3.60;;;8.20;82.50;;;;;;6340452;22;19999;-78
2022/12/18 00:06:53;;;;;;;4.53;3.58;;;8.20;83.50;;;;;;6339779;22;19995;-78
2022/12/18 00:09:19;;;;;;;6.32;4.78;;;8.20;81.90;;;;;;6339999;22;20071;-78
2022/12/18 00:11:45;;;;;;;5.60;3.63;;;8.00;81.30;;;;;;6340412;22;19999;-78
2022/12/18 00:14:12;;;;;;;6.68;4.10;;;8.10;82.50;;;;;;6339684;22;20010;-77
2022/12/18 00:16:38;;;;;;;4.63;3.50;;;8.10;82.50;;;;;;6339838;22;20003;-78
2022/12/18 00:19:05;;;;;;;6.20;3.70;;;8.10;82.70;;;;;;6340433;22;19999;-78
2022/12/18 00:21:32;;;;;;;4.32;3.40;;;8.10;82.90;;;;;;6340113;22;20006;-77
2022/12/18 00:23:59;;;;;;;6.13;3.78;;;8.10;82.90;;;;;;6340200;22;19999;-78
2022/12/18 00:26:27;;;;;;;4.75;3.58;;;8.10;83.00;;;;;;6339524;22;19995;-77
2022/12/18 00:28:55;;;;;;;6.22;3.85;;;8.20;83.00;;;;;;6340249;22;19994;-77
2022/12/18 00:31:23;;;;;;;5.68;4.05;;;8.20;82.90;;;;;;6338044;22;19999;-77
2022/12/18 00:33:49;;;;;;;5.00;3.63;;;8.30;82.70;;;;;;6340566;22;19995;-77
2022/12/18 00:36:17;;;;;;;4.47;3.08;;;8.30;82.70;;;;;;6340029;22;20417;-78
2022/12/18 00:38:43;;;;;;;4.07;3.33;;;8.30;82.60;;;;;;6340188;22;20023;-78
2022/12/18 00:41:11;;;;;;;4.45;3.70;;;8.30;82.50;;;;;;6339644;22;19995;-78
2022/12/18 00:43:38;;;;;;;6.13;3.70;;;8.30;82.30;;;;;;6339743;22;19999;-78
2022/12/18 00:46:04;;;;;;;5.50;3.88;;;8.30;82.40;;;;;;6339675;22;20077;-77
2022/12/18 00:48:30;;;;;;;5.03;3.58;;;8.20;82.20;;;;;;6340086;22;20026;-77
2022/12/18 00:50:55;;;;;;;4.45;3.35;;;8.30;82.30;;;;;;6340185;22;20055;-77
2022/12/18 00:53:21;;;;;;;3.88;3.15;;;8.30;81.90;;;;;;6312445;22;20034;-78
2022/12/18 00:55:47;;;;;;;4.70;3.67;;;8.20;82.00;;;;;;6340075;22;20006;-78
2022/12/18 00:58:14;;;;;;;5.18;3.42;;;8.20;82.10;;;;;;6339955;22;20009;-78
2022/12/18 01:00:41;;;;;;;5.20;3.83;;;8.20;82.00;;;;;;6339798;22;19994;-78
2022/12/18 01:03:06;;;;;;;4.10;3.20;;;8.20;81.90;;;;;;6339678;22;20421;-78
2022/12/18 01:05:33;;;;;;;5.22;3.90;;;8.20;81.90;;;;;;6340137;22;20063;-78
2022/12/18 01:07:59;;;;;;;5.05;3.70;;;8.20;81.90;;;;;;6340004;22;20328;-78
2022/12/18 01:10:25;;;;;;;4.53;3.60;;;8.20;81.80;;;;;;6339941;22;20011;-78
2022/12/18 01:12:52;;;;;;;4.80;3.42;;;8.20;81.80;;;;;;6339378;22;20006;-79
2022/12/18 01:15:18;;;;;;;4.10;3.10;;;8.20;81.80;;;;;;6340306;22;20472;-78
2022/12/18 01:17:44;;;;;;;4.65;3.10;;;8.20;81.80;;;;;;6339765;22;19999;-78
2022/12/18 01:20:11;;;;;;;3.95;3.10;;;8.20;81.80;;;;;;6339535;22;20011;-78
2022/12/18 01:22:37;;;;;;;5.00;3.92;;;8.30;81.90;;;;;;6339016;22;20444;-79
2022/12/18 01:25:04;;;;;;;5.00;3.45;;;8.20;80.90;;;;;;6338649;22;19995;-79
2022/12/18 01:27:30;;;;;;;11.30;3.75;;;8.20;81.40;;;;;;6339452;22;19999;-78
2022/12/18 01:29:56;;;;;;;5.35;4.13;;;8.10;80.60;;;;;;6339743;22;20074;-79
2022/12/18 01:32:22;;;;;;;4.45;3.60;;;8.10;81.30;;;;;;6338693;22;20459;-79
2022/12/18 01:34:48;;;;;;;3.90;2.85;;;8.10;81.40;;;;;;6339884;22;20011;-79
2022/12/18 01:37:13;;;;;;;4.07;3.40;;;8.10;81.30;;;;;;6339278;22;20321;-80
2022/12/18 01:39:39;;;;;;;4.50;3.20;;;8.10;80.80;;;;;;6339407;22;20465;-80
2022/12/18 01:42:11;;;;;;;4.32;3.42;;;8.10;81.20;;;;;;6338216;22;20490;-80
2022/12/18 01:44:56;;;;;;;4.78;3.60;;;8.10;81.10;;;;;;6339508;22;19999;-80
2022/12/18 01:47:36;;;;;;;3.92;3.50;;;8.10;81.10;;;;;;6337948;22;20007;-78
2022/12/18 01:50:10;;;;;;;;;;;8.10;81.00;;;;;;6339754;22;20435;-78
2022/12/18 01:52:37;;;;;;;13.02;3.85;;;8.10;80.90;;;;;;6339229;22;19977;-78
2022/12/18 01:55:05;;;;;;;5.00;3.42;;;8.00;80.90;;;;;;6339166;22;20021;-78
2022/12/18 01:57:30;;;;;;;4.32;3.13;;;8.00;80.60;;;;;;6337565;22;20409;-78
2022/12/18 02:00:01;;;;;;;4.50;3.28;;;8.10;81.30;;;;;;6338915;22;19995;-80
2022/12/18 02:02:29;;;;;;;4.55;3.22;;;8.10;81.30;;;;;;6310808;22;20003;-78
2022/12/18 02:04:54;;;;;;;4.68;3.30;;;8.10;81.00;;;;;;6311060;22;20007;-77
2022/12/18 02:08:05;;;;;;;5.45;3.53;;;8.10;80.80;;;;;;6338961;22;20514;-79
2022/12/18 02:10:44;;;;;;;3.53;3.22;;;8.10;80.40;;;;;;6213074;23;20472;-80
2022/12/18 02:13:19;;;;;;;6.05;3.40;;;8.10;80.40;;;;;;6187323;23;20087;-80
2022/12/18 02:16:13;;;;;;;4.93;3.25;;;8.10;80.50;;;;;;6290799;22;20048;-81
2022/12/18 02:18:44;;;;;;;3.60;2.83;;;8.10;80.60;;;;;;6338980;22;20325;-81
2022/12/18 02:21:31;;;;;;;3.53;2.80;;;8.10;80.40;;;;;;6339479;22;20018;-85
2022/12/18 02:24:02;;;;;;;4.15;3.25;;;8.10;79.90;;;;;;6338955;22;20001;-87
2022/12/18 02:26:39;;;;;;;3.92;3.08;;;8.10;79.90;;;;;;6339740;22;20616;-87
2022/12/18 02:29:16;;;;;;;4.30;3.17;;;8.10;79.80;;;;;;6339468;22;20003;-85
2022/12/18 02:31:49;;;;;;;4.82;3.17;;;8.00;79.80;;;;;;6310409;22;20006;-86
2022/12/18 02:34:17;;;;;;;5.40;3.63;;;8.00;79.60;;;;;;6338550;22;19998;-83
2022/12/18 02:36:44;;;;;;;4.20;3.00;;;7.90;79.20;;;;;;6338972;22;20003;-84
2022/12/18 02:39:13;;;;;;;4.90;3.97;;;7.90;79.50;;;;;;6338409;22;19999;-84
2022/12/18 02:41:39;;;;;;;4.78;3.53;;;7.90;78.50;;;;;;6339358;22;20320;-84
2022/12/18 02:44:12;;;;;;;4.85;3.67;;;7.80;79.30;;;;;;6339361;22;19999;-83
2022/12/18 02:46:39;;;;;;;3.42;2.80;;;7.80;79.30;;;;;;6339389;22;20437;-83
2022/12/18 02:49:14;;;;;;;4.43;3.47;;;7.80;79.40;;;;;;6339285;22;19995;-83
2022/12/18 02:51:45;;;;;;;6.45;3.58;;;7.80;78.60;;;;;;6339281;22;19999;-83
2022/12/18 02:54:26;;;;;;;5.00;3.30;;;7.70;78.90;;;;;;6338984;22;19999;-83
2022/12/18 02:56:55;;;;;;;4.18;2.88;;;7.70;79.30;;;;;;6339132;22;20006;-84
2022/12/18 03:00:02;;;;;;;5.35;3.75;;;7.70;79.00;;;;;;6339257;22;20005;-84
2022/12/18 03:02:48;;;;;;;4.97;3.40;;;7.60;78.50;;;;;;6277819;22;20002;-84
2022/12/18 03:05:33;;;;;;;4.22;3.38;;;7.60;78.80;;;;;;6339005;22;19998;-82
2022/12/18 03:08:05;;;;;;;4.20;2.97;;;7.60;79.50;;;;;;6339102;22;20420;-84
2022/12/18 03:10:38;;;;;;;3.95;3.08;;;7.60;79.80;;;;;;6312101;22;20048;-84
2022/12/18 03:13:09;;;;;;;5.25;3.05;;;7.60;79.80;;;;;;6339267;22;20003;-84
2022/12/18 03:15:56;;;;;;;4.75;3.05;;;7.70;79.80;;;;;;6339241;22;20003;-85
2022/12/18 03:18:29;;;;;;;5.90;4.05;;;7.70;79.60;;;;;;6338336;22;20055;-83
2022/12/18 03:20:58;;;;;;;4.53;3.13;;;7.70;78.30;;;;;;6338272;22;20007;-84
2022/12/18 03:23:29;;;;;;;4.33;3.37;;;7.70;79.90;;;;;;6339038;22;20002;-83
2022/12/18 03:25:57;;;;;;;;;;;7.70;79.50;;;;;;6311289;22;20240;-83
2022/12/18 03:28:23;;;;;;;5.93;3.75;;;7.70;79.30;;;;;;6338848;22;19898;-83
2022/12/18 03:30:56;;;;;;;5.05;3.97;;;7.50;77.60;;;;;;6338175;22;20007;-83
2022/12/18 03:33:46;;;;;;;5.07;3.70;;;7.50;79.10;;;;;;6336860;22;20056;-83
2022/12/18 03:36:12;;;;;;;5.72;3.97;;;7.40;79.30;;;;;;6337560;22;20078;-83
2022/12/18 03:38:38;;;;;;;4.25;3.22;;;7.40;79.60;;;;;;6338372;22;20034;-83
2022/12/18 03:41:34;;;;;;;4.95;3.70;;;7.40;79.60;;;;;;6338282;22;20347;-83
2022/12/18 03:44:32;;;;;;;4.00;3.08;;;7.40;80.00;;;;;;6338855;22;19995;-83
2022/12/18 03:47:00;;;;;;;4.70;3.47;;;7.50;80.10;;;;;;6338629;22;20128;-82
2022/12/18 03:50:03;;;;;;;4.57;3.35;;;7.50;79.80;;;;;;6338207;22;20002;-82
2022/12/18 03:52:34;;;;;;;4.25;3.00;;;7.50;80.00;;;;;;6338642;22;20003;-82
2022/12/18 03:55:03;;;;;;;5.43;3.67;;;7.50;79.50;;;;;;6338066;22;20486;-83
2022/12/18 03:57:31;;;;;;;5.90;4.00;;;7.50;79.80;;;;;;6337981;22;20009;-84
2022/12/18 04:00:01;;;;;;;4.20;3.45;;;7.50;79.80;;;;;;6338523;22;20069;-83
2022/12/18 04:02:29;;;;;;;4.93;3.65;;;7.40;79.30;;;;;;6338288;22;20128;-83
2022/12/18 04:04:59;;;;;;;4.47;3.15;;;7.40;79.20;;;;;;6310682;22;20317;-83
2022/12/18 04:07:25;;;;;;;6.05;4.18;;;7.40;79.60;;;;;;6338815;22;20082;-83
2022/12/18 04:09:55;;;;;;;6.00;3.65;;;7.30;79.60;;;;;;6339028;22;19999;-84
2022/12/18 04:12:21;;;;;;;;;;;7.40;79.70;;;;;;6339638;22;20002;-84
2022/12/18 04:14:46;;;;;;;4.78;3.63;;;7.40;79.70;;;;;;6338389;22;20194;-83
2022/12/18 04:17:12;;;;;;;4.53;3.20;;;7.40;79.70;;;;;;6310187;22;20002;-82
2022/12/18 04:19:37;;;;;;;4.85;3.15;;;7.40;79.80;;;;;;6338162;22;20011;-81
2022/12/18 04:22:03;;;;;;;4.95;3.83;;;7.40;79.60;;;;;;6338477;22;19994;-82
2022/12/18 04:24:29;;;;;;;4.82;3.33;;;7.40;79.60;;;;;;6338495;22;20002;-83
2022/12/18 04:26:54;;;;;;;4.72;3.50;;;7.40;79.60;;;;;;6338541;22;20049;-83
2022/12/18 04:29:20;;;;;;;4.45;3.35;;;7.40;79.70;;;;;;6338167;22;20034;-84
2022/12/18 04:31:46;;;;;;;6.65;4.13;;;7.40;79.50;;;;;;6338550;22;20003;-84
2022/12/18 04:34:11;;;;;;;5.82;4.00;;;7.50;79.50;;;;;;6338764;22;19995;-84
2022/12/18 04:36:37;;;;;;;4.63;3.55;;;7.50;79.40;;;;;;6337981;22;20022;-84
2022/12/18 04:39:03;;;;;;;8.15;3.53;;;7.40;79.20;;;;;;6338472;22;20005;-84
2022/12/18 04:41:28;;;;;;;6.35;3.72;;;7.50;79.40;;;;;;6338259;22;19999;-85
2022/12/18 04:43:54;;;;;;;6.55;3.90;;;7.50;79.60;;;;;;6338658;22;19999;-85
2022/12/18 04:46:20;;;;;;;5.45;3.63;;;7.50;79.50;;;;;;6339275;22;19999;-84
2022/12/18 04:48:46;;;;;;;7.18;4.63;;;7.50;79.30;;;;;;6340446;22;20010;-83
2022/12/18 04:51:12;;;;;;;5.75;4.07;;;7.50;79.00;;;;;;6338965;22;19999;-83
2022/12/18 04:53:38;;;;;;;6.03;4.00;;;7.50;79.10;;;;;;6340418;22;20029;-81
2022/12/18 04:56:10;;;;;;;5.60;3.90;;;7.50;79.10;;;;;;6340157;22;20417;-81
2022/12/18 04:58:37;;;;;;;5.90;4.05;;;7.50;79.10;;;;;;6339703;22;20007;-80
2022/12/18 05:01:03;;;;;;;5.22;3.97;;;7.50;79.30;;;;;;6339471;22;20317;-80
2022/12/18 05:03:29;;;;;;;6.05;4.10;;;7.50;79.70;;;;;;6339578;22;20003;-80
2022/12/18 05:05:55;;;;;;;5.82;4.22;;;7.50;79.60;;;;;;6339621;22;20078;-80
2022/12/18 05:08:21;;;;;;;5.50;3.88;;;7.40;79.20;;;;;;6339811;22;20515;-81
2022/12/18 05:10:46;;;;;;;6.30;4.40;;;7.50;79.20;;;;;;6339708;22;20003;-81
2022/12/18 05:13:12;;;;;;;6.57;4.07;;;7.50;79.80;;;;;;6340308;22;20002;-83
2022/12/18 05:15:38;;;;;;;5.63;3.72;;;7.50;79.30;;;;;;6339601;22;20010;-81
2022/12/18 05:18:04;;;;;;;5.82;4.00;;;7.40;79.30;;;;;;6339698;22;20290;-82
2022/12/18 05:20:31;;;;;;;5.22;4.05;;;7.40;79.50;;;;;;6338223;22;20033;-82
2022/12/18 05:22:57;;;;;;;6.82;4.55;;;7.40;79.30;;;;;;6339061;22;20474;-83
2022/12/18 05:25:23;;;;;;;5.30;4.30;;;7.40;79.40;;;;;;6339259;22;20022;-85
2022/12/18 05:27:49;;;;;;;6.13;4.25;;;7.30;78.90;;;;;;6339833;22;19999;-84
2022/12/18 05:30:15;;;;;;;6.80;4.10;;;7.40;79.20;;;;;;6311957;22;20013;-84
2022/12/18 05:32:41;;;;;;;6.85;4.75;;;7.30;78.70;;;;;;6342601;22;20048;-84
2022/12/18 05:35:09;;;;;;;5.95;4.15;;;7.30;78.70;;;;;;6341096;22;20047;-84
2022/12/18 05:37:35;;;;;;;7.28;4.53;;;7.30;79.50;;;;;;6339964;22;19999;-83
2022/12/18 05:40:01;;;;;;;7.05;4.53;;;7.30;79.40;;;;;;6339893;22;20044;-83
2022/12/18 05:42:27;;;;;;;7.28;4.75;;;7.20;79.40;;;;;;6312542;22;20002;-84
2022/12/18 05:44:53;;;;;;;6.30;4.35;;;7.20;79.50;;;;;;6339960;22;20413;-84
2022/12/18 05:47:19;;;;;;;6.63;4.90;;;7.20;79.90;;;;;;6339938;22;20013;-83
2022/12/18 05:49:45;;;;;;;7.80;4.90;;;7.20;79.90;;;;;;6339512;22;20003;-82
2022/12/18 05:52:10;;;;;;;6.65;4.63;;;7.20;80.00;;;;;;6339892;22;20380;-81
2022/12/18 05:54:36;;;;;;;5.85;4.30;;;7.20;80.00;;;;;;6339956;22;20009;-82
2022/12/18 05:57:02;;;;;;;5.82;4.10;;;7.20;80.10;;;;;;6338934;22;20071;-83
2022/12/18 05:59:27;;;;;;;6.63;4.68;;;7.20;79.90;;;;;;6339711;22;20466;-82
2022/12/18 06:01:53;;;;;;;7.22;5.03;;;7.20;80.00;;;;;;6339771;22;20003;-85
2022/12/18 06:04:19;;;;;;;7.30;4.63;;;7.20;80.00;;;;;;6339255;22;20073;-83
2022/12/18 06:06:45;;;;;;;7.25;4.65;;;7.10;79.50;;;;;;6339202;22;20413;-81
2022/12/18 06:09:11;;;;;;;5.93;4.47;;;7.20;79.90;;;;;;6338858;22;20003;-81
2022/12/18 06:11:38;;;;;;;7.78;4.75;;;7.20;80.00;;;;;;6338713;22;20002;-83
2022/12/18 06:14:05;;;;;;;8.63;5.28;;;7.20;80.20;;;;;;6338802;22;20036;-82
2022/12/18 06:16:33;;;;;;;7.97;4.85;;;7.10;79.80;;;;;;6339490;22;20179;-81
2022/12/18 06:19:01;;;;;;;6.38;4.35;;;7.10;80.30;;;;;;6339272;22;20250;-82
2022/12/18 06:21:27;;;;;;;5.82;4.20;;;7.00;80.10;;;;;;6339255;22;20006;-81
2022/12/18 06:23:53;;;;;;;6.63;4.40;;;7.00;80.30;;;;;;6338848;22;19998;-81
2022/12/18 06:26:19;;;;;;;7.32;5.07;;;7.10;80.40;;;;;;6339372;22;20358;-84
2022/12/18 06:28:44;;;;;;;7.03;4.55;;;7.10;80.10;;;;;;6338363;22;20025;-83
2022/12/18 06:31:11;;;;;;;6.63;4.40;;;7.00;79.80;;;;;;6339037;22;20405;-82
2022/12/18 06:33:38;;;;;;;6.97;4.50;;;7.00;80.30;;;;;;6339690;22;20101;-82
2022/12/18 06:36:10;;;;;;;8.18;5.13;;;7.00;80.40;;;;;;6338837;22;20049;-84
2022/12/18 06:38:38;;;;;;;9.32;5.30;;;7.00;80.40;;;;;;6338896;22;19999;-81
2022/12/18 06:41:22;;;;;;;6.80;4.80;;;7.00;80.50;;;;;;6338210;22;20070;-82
2022/12/18 06:43:47;;;;;;;10.20;6.10;;;7.00;80.60;;;;;;6339212;22;19994;-80
2022/12/18 06:46:13;;;;;;;6.18;4.57;;;6.90;80.30;;;;;;6338670;22;20037;-79
2022/12/18 06:48:39;;;;;;;6.80;4.60;;;6.90;80.70;;;;;;6339157;22;20014;-80
2022/12/18 06:51:05;;;;;;;6.95;4.72;;;6.90;80.80;;;;;;6337380;22;20034;-81
2022/12/18 06:53:32;;;;;;;7.93;4.75;;;6.90;80.80;;;;;;6339002;22;20003;-81
2022/12/18 06:56:07;;;;;;;9.23;4.75;;;6.90;80.90;;;;;;6338426;22;20082;-81
2022/12/18 06:58:33;;;;;;;6.50;4.68;;;7.00;80.90;;;;;;6338505;22;20003;-81
2022/12/18 07:01:06;;;;;;;7.05;4.93;;;7.00;80.80;;;;;;6338465;22;20016;-81
2022/12/18 07:03:32;;;;;;;9.80;5.07;;;7.00;80.70;;;;;;6337953;22;20005;-81
2022/12/18 07:05:58;;;;;;;7.38;5.45;;;7.00;80.70;;;;;;6336555;22;20003;-84
2022/12/18 07:08:24;;;;;;;8.55;5.65;;;7.00;80.20;;;;;;6308792;22;20006;-75
2022/12/18 07:10:50;;;;;;;6.70;4.95;;;7.00;80.60;;;;;;6336988;22;19998;-81
2022/12/18 07:13:16;;;;;;;7.43;5.78;;;7.10;80.60;;;;;;6336465;22;19999;-76
2022/12/18 07:15:43;;;;;;;7.15;4.70;;;7.00;80.00;;;;;;6337517;22;20030;-75
2022/12/18 07:18:09;;;;;;;8.13;5.03;;;7.00;80.20;;;;;;6337820;22;20033;-75
2022/12/18 07:20:35;;;;;;;8.05;5.03;;;7.00;80.30;;;;;;6337200;22;20321;-75
2022/12/18 07:23:03;;;;;;;6.68;4.78;;;7.00;80.30;;;;;;6337768;22;20020;-78
2022/12/18 07:25:29;;;;;;;7.90;5.35;;;7.00;80.30;;;;;;6338278;22;20003;-76
2022/12/18 07:27:55;;;;;;;8.48;5.38;;;7.00;80.50;;;;;;6338786;22;20413;-78
2022/12/18 07:30:20;;;;;;;6.68;4.95;;;7.00;79.90;;;;;;6337662;22;20329;-78
2022/12/18 07:32:46;;;;;;;8.48;4.82;;;7.10;81.50;;;;;;6336730;22;20751;-79
2022/12/18 07:35:12;;;;;;;7.70;5.10;;;7.10;82.10;;;;;;6337199;22;20074;-80
2022/12/18 07:37:38;;;;;;;8.38;5.50;;;7.10;81.10;;;;;;6333989;22;20463;-79
2022/12/18 07:40:04;;;;;;;9.15;4.85;;;7.30;80.80;;;;;;6335945;22;20021;-84
2022/12/18 07:42:33;;;;;;;7.43;5.22;;;7.30;80.40;;;;;;6338483;22;19995;-78
2022/12/18 07:45:00;;;;;;;6.80;5.05;;;7.30;80.20;;;;;;6338567;22;20014;-78
2022/12/18 07:47:26;;;;;;;8.57;5.03;;;7.30;80.00;;;;;;6338741;22;20010;-78
2022/12/18 07:49:52;;;;;;;7.85;4.82;;;7.20;79.50;;;;;;6337798;22;20002;-79
2022/12/18 07:52:17;;;;;;;8.52;5.10;;;7.30;80.00;;;;;;6337337;22;20005;-78
2022/12/18 07:54:43;;;;;;;6.43;4.70;;;7.40;79.90;;;;;;6338203;22;20074;-78
2022/12/18 07:57:09;;;;;;;9.75;6.40;;;7.40;79.80;;;;;;6338576;22;20003;-78
2022/12/18 07:59:35;;;;;;;6.97;4.57;;;7.40;79.20;;;;;;6338624;22;20002;-78
2022/12/18 08:02:01;;;;;;;6.38;4.68;;;7.40;79.40;;;;;;6338291;22;19999;-78
2022/12/18 08:04:27;;;;;;;7.80;5.40;;;7.30;79.50;;;;;;6337665;22;20409;-78
2022/12/18 08:06:53;;;;;;;6.80;5.05;;;7.40;79.60;;;;;;6338135;22;19999;-78
2022/12/18 08:09:19;;;;;;;7.53;5.20;;;7.40;79.50;;;;;;6338157;22;20486;-78
2022/12/18 08:11:44;;;;;;;9.10;6.03;;;7.40;79.50;;;;;;6338463;22;20022;-78
2022/12/18 08:14:10;;;;;;;8.63;5.53;;;7.50;79.70;;;;;;6338205;22;19995;-79
2022/12/18 08:16:36;;;;;;;6.57;4.90;;;7.40;78.70;;;;;;6338561;22;20048;-79
2022/12/18 08:19:02;;;;;;;8.23;6.05;;;7.50;79.20;;;;;;6337190;22;20088;-79
2022/12/18 08:21:30;;;;;;;7.35;5.68;;;7.40;77.90;;;;;;6339582;22;20014;-78
2022/12/18 08:23:58;;;;;;;9.38;5.78;;;7.30;78.50;;;;;;6340203;22;20048;-78
2022/12/18 08:26:26;;;;;;;8.60;5.65;;;7.30;79.30;;;;;;6340354;22;20002;-78
2022/12/18 08:28:54;;;;;;;7.93;5.38;;;7.40;79.60;;;;;;6340319;22;20002;-77
2022/12/18 08:31:20;;;;;;;8.52;6.43;;;7.40;79.30;;;;;;6340286;22;20003;-78
2022/12/18 08:33:49;;;;;;;7.63;5.70;;;7.50;79.30;;;;;;6339351;22;20074;-78
2022/12/18 08:36:15;;;;;;;7.20;5.03;;;7.50;79.00;;;;;;6339784;22;20183;-78
2022/12/18 08:38:40;;;;;;;9.82;5.35;;;7.60;79.10;;;;;;6340028;22;20103;-78
2022/12/18 08:41:09;;;;;;;8.50;5.63;;;7.70;79.00;;;;;;6339853;22;19999;-78
2022/12/18 08:46:20;;;;;;;7.53;5.25;;;7.80;78.50;;;;;;6339930;22;20014;-78
2022/12/18 08:48:48;;;;;;;7.97;5.85;;;7.90;78.70;;;;;;6339223;22;20003;-78
2022/12/18 08:51:16;;;;;;;7.97;6.05;;;7.90;78.10;;;;;;6339030;22;20041;-78
2022/12/18 08:53:44;;;;;;;8.48;5.68;;;7.90;78.10;;;;;;6311931;22;20003;-78
2022/12/18 08:56:10;;;;;;;9.10;5.55;;;7.90;77.90;;;;;;6338539;22;20085;-77
2022/12/18 08:58:36;;;;;;;10.07;6.03;;;8.00;78.30;;;;;;6339788;22;20031;-78
2022/12/18 09:01:03;;;;;;;9.40;5.93;;;8.10;78.20;;;;;;6339435;22;20003;-78
2022/12/18 09:03:28;;;;;;;7.03;5.10;;;8.10;78.00;;;;;;6339080;22;20503;-77
2022/12/18 09:05:54;;;;;;;7.65;5.38;;;8.10;77.90;;;;;;6339527;22;19994;-78
2022/12/18 09:08:20;;;;;;;9.55;6.28;;;8.10;77.80;;;;;;6339564;22;20290;-78
2022/12/18 09:10:47;;;;;;;7.80;5.38;;;8.20;77.90;;;;;;6339984;22;20006;-82
2022/12/18 09:13:14;;;;;;;10.25;6.28;;;8.30;77.60;;;;;;6339571;22;20449;-82
2022/12/18 09:15:48;;;;;;;8.18;5.32;;;8.30;77.50;;;;;;6339707;22;20006;-83
2022/12/18 09:18:16;;;;;;;7.47;5.47;;;8.40;77.40;;;;;;6339279;22;19999;-83
2022/12/18 09:20:42;;;;;;;8.55;5.63;;;8.50;77.10;;;;;;6338782;22;20006;-78
2022/12/18 09:23:09;;;;;;;7.85;6.05;;;8.50;77.20;;;;;;6311988;22;20006;-78
2022/12/18 09:25:35;;;;;;;10.75;5.90;;;8.60;77.60;;;;;;6339524;22;19998;-79
2022/12/18 09:28:13;;;;;;;7.70;5.45;;;8.60;76.00;;;;;;6339628;22;20003;-77
2022/12/18 09:30:40;;;;;;;7.65;5.22;;;8.70;76.80;;;;;;6339047;22;20373;-78
2022/12/18 09:33:05;;;;;;;9.45;5.57;;;8.70;76.10;;;;;;6339357;22;19999;-80
2022/12/18 09:35:31;;;;;;;8.60;5.97;;;8.80;75.50;;;;;;6339075;22;20006;-80
2022/12/18 09:37:57;;;;;;;7.57;5.07;;;8.80;75.50;;;;;;6339176;22;20002;-79
2022/12/18 09:40:25;;;;;;;8.93;5.00;;;8.80;75.10;;;;;;6339167;22;19999;-78
2022/12/18 09:42:59;;;;;;;7.65;5.30;;;8.90;75.20;;;;;;6338870;22;20003;-79
2022/12/18 09:45:26;;;;;;;8.02;5.70;;;8.90;74.40;;;;;;6338846;22;19998;-78
2022/12/18 09:47:54;;;;;;;7.05;5.10;;;8.90;73.90;;;;;;6338284;22;20090;-79
2022/12/18 09:50:20;;;;;;;9.40;5.75;;;;;;;;;;6310027;22;20332;-84
2022/12/18 09:52:52;;;;;;;9.82;6.03;;;9.10;73.00;;;;;;6338380;22;20051;-81
2022/12/18 09:55:29;;;;;;;9.20;5.03;;;9.10;73.10;;;;;;6309725;22;20009;-82
2022/12/18 09:58:17;;;;;;;7.72;5.00;;;9.20;74.50;;;;;;6337615;22;20065;-81
2022/12/18 10:00:43;;;;;;;8.07;5.57;;;9.30;74.80;;;;;;6335952;22;20007;-80
2022/12/18 10:03:12;;;;;;;8.55;5.18;;;9.40;73.70;;;;;;6337639;22;20087;-82
2022/12/18 10:05:51;;;;;;;7.85;5.32;;;9.50;73.30;;;;;;6338041;22;20002;-82
2022/12/18 10:08:42;;;;;;;8.40;5.13;;;9.60;72.90;;;;;;6338265;22;20350;-80
2022/12/18 10:11:33;;;;;;;9.40;5.25;;;9.50;70.80;;;;;;6338869;22;20363;-80
2022/12/18 10:14:09;;;;;;;8.15;5.75;;;9.50;72.20;;;;;;6337381;22;20412;-79
2022/12/18 10:16:55;;;;;;;6.88;5.10;;;9.60;72.20;;;;;;6338219;22;20003;-79
2022/12/18 10:19:39;;;;;;;7.22;4.93;;;9.70;72.30;;;;;;6317548;22;20007;-78
2022/12/18 10:22:39;;;;;;;8.93;5.30;;;9.80;72.60;;;;;;6338836;22;20010;-77
2022/12/18 10:25:18;;;;;;;7.43;5.07;;;10.00;72.00;;;;;;6336693;22;20006;-78
2022/12/18 10:27:44;;;;;;;7.63;5.35;;;10.20;72.10;;;;;;6337777;22;19998;-83
2022/12/18 10:30:18;;;;;;;8.98;5.07;;;10.30;72.00;;;;;;6338026;22;20313;-88
2022/12/18 10:32:44;;;;;;;7.95;5.47;;;10.50;72.00;;;;;;6339269;22;20052;-79
2022/12/18 10:35:24;;;;;;;6.93;5.10;;;10.70;71.50;;;;;;6337921;22;19999;-81
2022/12/18 10:38:06;;;;;;;7.57;4.78;;;11.00;71.20;;;;;;6339126;22;20480;-81
2022/12/18 10:40:47;;;;;;;6.65;4.97;;;11.20;70.10;;;;;;6337629;22;20120;-82
2022/12/18 10:43:14;;;;;;;7.90;5.13;;;11.40;69.50;;;;;;6337570;22;20132;-81
2022/12/18 10:45:41;;;;;;;7.63;5.57;;;11.70;69.60;;;;;;6338741;22;20321;-80
2022/12/18 10:48:21;;;;;;;7.90;6.03;;;11.90;68.80;;;;;;6338702;22;20068;-80
2022/12/18 10:50:50;;;;;;;6.50;5.10;;;12.30;67.80;;;;;;6338495;22;20002;-79
2022/12/18 10:53:27;;;;;;;7.53;5.68;;;12.20;68.20;;;;;;6337882;22;20367;-79
2022/12/18 10:55:57;;;;;;;7.00;5.10;;;12.40;67.70;;;;;;6338280;22;20022;-79
2022/12/18 10:58:23;;;;;;;7.82;4.90;;;12.50;66.60;;;;;;6337896;22;19999;-80
2022/12/18 11:01:12;;;;;;;6.88;5.13;;;12.60;66.50;;;;;;6338023;22;20114;-81
2022/12/18 11:03:41;;;;;;;8.25;5.32;;;12.80;66.30;;;;;;6337764;22;19991;-80
2022/12/18 11:06:10;;;;;;;7.57;5.68;;;12.80;65.50;;;;;;6334006;22;20002;-82
2022/12/18 11:08:36;;;;;;;8.80;5.18;;;12.90;65.30;;;;;;6310530;22;20416;-80
2022/12/18 11:11:04;;;;;;;8.43;5.90;;;13.10;65.50;;;;;;6338330;22;20003;-79
2022/12/18 11:13:31;;;;;;;7.38;5.45;;;13.20;64.70;;;;;;6337668;22;20049;-80
2022/12/18 11:15:58;;;;;;;11.55;7.20;;;13.30;65.00;;;;;;6338157;22;20056;-80
2022/12/18 11:18:34;;;;;;;9.15;6.13;;;13.00;61.50;;;;;;6337880;22;20055;-80
2022/12/18 11:21:07;;;;;;;9.23;6.72;;;12.80;60.80;;;;;;6336507;22;20321;-87
2022/12/18 11:23:34;;;;;;;7.28;5.30;;;12.40;61.70;;;;;;6337868;22;20404;-79
2022/12/18 11:26:03;;;;;;;10.90;7.05;;;12.40;64.20;;;;;;6337782;22;19998;-78
2022/12/18 11:28:34;;;;;;;9.20;6.35;;;12.50;61.70;;;;;;6338030;22;20006;-77
2022/12/18 11:31:12;;;;;;;7.95;5.43;;;12.50;62.30;;;;;;6309767;22;20003;-79
2022/12/18 11:33:41;;;;;;;7.47;5.50;;;12.60;64.30;;;;;;6336173;22;20135;-79
2022/12/18 11:36:09;;;;;;;7.97;6.07;;;12.90;65.00;;;;;;6337237;22;20003;-79
2022/12/18 11:38:40;;;;;;;8.50;5.85;;;13.30;65.20;;;;;;6337339;22;19999;-79
2022/12/18 11:41:12;;;;;;;8.02;6.10;;;13.70;63.50;;;;;;6309841;22;20341;-79
2022/12/18 11:43:49;;;;;;;8.77;6.47;;;14.80;60.70;;;;;;6338173;22;19995;-79
2022/12/18 11:46:23;;;;;;;8.27;6.57;;;15.80;59.40;;;;;;6337404;22;20034;-80
2022/12/18 11:49:20;;;;;;;7.97;6.75;;;16.20;59.50;;;;;;6337797;22;20500;-80
2022/12/18 11:52:00;;;;;;;8.55;6.60;;;17.50;50.70;;;;;;6334916;22;20079;-79
2022/12/18 11:54:26;;;;;;;8.77;7.05;;;17.70;54.70;;;;;;6337226;22;20059;-80
2022/12/18 11:57:08;;;;;;;10.02;7.10;;;18.10;53.00;;;;;;6335359;22;20097;-80
2022/12/18 11:59:40;;;;;;;8.25;6.97;;;18.80;52.20;;;;;;6334881;22;20417;-80
2022/12/18 12:02:32;;;;;;;8.35;6.95;;;19.50;50.30;;;;;;6333962;22;20005;-80
2022/12/18 12:05:19;;;;;;;10.98;7.20;;;20.30;48.20;;;;;;6307024;22;20030;-80
2022/12/18 12:08:00;;;;;;;9.98;7.38;;;20.60;47.00;;;;;;6334918;22;20009;-81
2022/12/18 12:10:55;;;;;;;8.65;7.00;;;21.00;45.10;;;;;;6333630;22;20025;-82
2022/12/18 12:13:42;;;;;;;8.23;6.78;;;21.10;44.80;;;;;;6333378;22;20014;-82
2022/12/18 12:16:19;;;;;;;8.57;7.38;;;21.30;44.80;;;;;;6336366;22;20022;-82
2022/12/18 12:19:00;;;;;;;7.63;6.47;;;21.50;43.80;;;;;;6336701;22;19999;-82
2022/12/18 12:21:42;;;;;;;8.98;7.20;;;21.70;43.70;;;;;;6336657;22;20450;-83
2022/12/18 12:24:20;;;;;;;8.50;7.15;;;21.60;41.10;;;;;;6310217;22;20405;-82
2022/12/18 12:26:55;;;;;;;15.75;7.55;;;21.50;43.00;;;;;;6336404;22;20010;-82
2022/12/18 12:29:35;;;;;;;9.15;7.20;;;21.00;40.60;;;;;;6336947;22;20028;-82
2022/12/18 12:32:04;;;;;;;9.20;7.60;;;21.00;43.30;;;;;;6336877;22;20018;-82
2022/12/18 12:34:54;;;;;;;9.13;6.82;;;21.00;43.10;;;;;;6337617;22;20059;-81
2022/12/18 12:37:45;;;;;;;9.50;7.57;;;21.10;43.80;;;;;;6314799;22;20340;-82
2022/12/18 12:40:19;;;;;;;8.18;6.65;;;21.10;43.90;;;;;;6336631;22;20056;-82
2022/12/18 12:45:55;;;;;;;8.00;7.20;;;20.60;43.00;;;;;;6335928;22;20452;-82
2022/12/18 12:48:32;;;;;;;8.85;7.38;;;20.40;43.60;;;;;;6308762;22;20003;-83
2022/12/18 12:51:02;;;;;;;9.52;7.25;;;20.30;44.00;;;;;;6337103;22;20371;-82
2022/12/18 12:53:35;;;;;;;8.65;7.18;;;20.30;44.20;;;;;;6337332;22;20007;-82
2022/12/18 12:56:01;;;;;;;9.38;7.57;;;20.20;43.90;;;;;;6309234;22;20013;-82
2022/12/18 12:58:36;;;;;;;7.82;6.53;;;20.10;43.40;;;;;;6335725;22;20030;-83
2022/12/18 13:01:08;;;;;;;7.97;6.05;;;19.90;43.20;;;;;;6335825;22;20380;-80
2022/12/18 13:03:43;;;;;;;8.27;6.85;;;19.90;44.00;;;;;;6331002;22;20377;-81
2022/12/18 13:06:22;;;;;;;8.57;6.68;;;19.70;42.70;;;;;;6332404;22;20774;-81
2022/12/18 13:08:59;;;;;;;8.45;6.75;;;19.60;43.10;;;;;;6335125;22;20006;-81
2022/12/18 13:14:37;;;;;;;7.00;6.13;;;19.30;43.60;;;;;;6336880;22;20439;-80
2022/12/18 13:17:21;;;;;;;6.57;5.68;;;19.10;44.00;;;;;;6335819;22;20057;-81
2022/12/18 13:20:16;;;;;;;6.18;5.50;;;18.90;43.70;;;;;;6337281;22;20086;-79
2022/12/18 13:22:47;;;;;;;6.72;5.75;;;18.70;43.80;;;;;;6337095;22;20031;-79